createdAt,value
2023-05-03T00:01:17.506Z,101833.31
2023-05-03T00:04:20.482Z,101827.69
2023-05-03T00:07:23.313Z,101830.59
2023-05-03T00:10:25.848Z,101830.25
2023-05-03T00:13:28.130Z,101838.75
2023-05-03T00:16:30.525Z,101824.50
2023-05-03T00:19:34.812Z,101822.63
2023-05-03T00:22:37.228Z,101822.13
2023-05-03T00:25:39.508Z,101819.72
2023-05-03T00:28:41.871Z,101820.06
2023-05-03T00:31:44.706Z,101799.06
2023-05-03T00:34:47.197Z,101818.72
2023-05-03T00:37:49.264Z,101820.44
2023-05-03T00:40:55.811Z,101815.00
2023-05-03T00:43:57.889Z,101812.81
2023-05-03T00:47:01.470Z,101801.44
2023-05-03T00:50:05.092Z,101795.81
2023-05-03T00:53:07.823Z,101802.13
2023-05-03T00:56:11.608Z,101807.06
2023-05-03T00:59:13.893Z,101809.06
2023-05-03T01:02:15.990Z,101803.47
2023-05-03T01:05:18.485Z,101800.63
2023-05-03T01:08:40.657Z,101797.75
2023-05-03T01:11:55.455Z,101809.44
2023-05-03T01:15:07.264Z,101812.31
2023-05-03T01:18:18.875Z,101799.28
2023-05-03T01:21:23.047Z,101803.16
2023-05-03T01:24:28.421Z,101807.44
2023-05-03T01:27:30.662Z,101807.41
2023-05-03T01:30:34.307Z,101804.50
2023-05-03T01:33:49.952Z,101794.19
2023-05-03T01:36:54.579Z,101809.44
2023-05-03T01:40:03.072Z,101798.28
2023-05-03T01:43:05.258Z,101807.75
2023-05-03T01:46:07.634Z,101804.19
2023-05-03T01:49:09.862Z,101807.06
2023-05-03T01:52:12.618Z,101798.56
2023-05-03T01:55:14.881Z,101804.84
2023-05-03T01:58:18.760Z,101817.72
2023-05-03T02:01:20.960Z,101815.16
2023-05-03T02:04:23.223Z,101820.25
2023-05-03T02:07:26.151Z,101810.44
2023-05-03T02:10:28.235Z,101823.31
2023-05-03T02:13:31.352Z,101824.00
2023-05-03T02:16:33.751Z,101832.13
2023-05-03T02:19:35.982Z,101827.53
2023-05-03T02:22:38.081Z,101827.69
2023-05-03T02:25:41.116Z,101836.84
2023-05-03T02:28:43.180Z,101826.00
2023-05-03T02:31:45.340Z,101837.88
2023-05-03T02:34:49.440Z,101827.66
2023-05-03T02:37:55.992Z,101821.19
2023-05-03T02:40:58.220Z,101830.69
2023-05-03T02:44:01.021Z,101820.88
2023-05-03T02:47:03.448Z,101818.81
2023-05-03T02:50:06.853Z,101822.03
2023-05-03T02:53:12.714Z,101821.50
2023-05-03T02:56:15.458Z,101812.88
2023-05-03T02:59:17.665Z,101815.59
2023-05-03T03:02:19.766Z,101818.28
2023-05-03T03:05:22.017Z,101824.56
2023-05-03T03:08:25.511Z,101821.00
2023-05-03T03:11:28.573Z,101820.47
2023-05-03T03:14:32.072Z,101811.50
2023-05-03T03:17:34.347Z,101818.63
2023-05-03T03:20:36.747Z,101819.78
2023-05-03T03:23:38.806Z,101819.78
2023-05-03T03:26:41.377Z,101815.75
2023-05-03T03:29:43.605Z,101819.13
2023-05-03T03:32:47.975Z,101822.16
2023-05-03T03:35:57.924Z,101828.81
2023-05-03T03:39:05.323Z,101836.09
2023-05-03T03:42:13.273Z,101837.25
2023-05-03T03:45:15.249Z,101836.09
2023-05-03T03:48:18.034Z,101838.28
2023-05-03T03:51:20.128Z,101842.03
2023-05-03T03:54:25.383Z,101842.16
2023-05-03T03:57:30.472Z,101842.38
2023-05-03T04:00:36.034Z,101843.22
2023-05-03T04:03:48.004Z,101850.88
2023-05-03T04:06:50.895Z,101849.53
2023-05-03T04:09:53.411Z,101854.66
2023-05-03T04:12:56.125Z,101853.44
2023-05-03T04:15:58.504Z,101860.94
2023-05-03T04:19:01.743Z,101862.31
2023-05-03T04:22:04.905Z,101852.13
2023-05-03T04:25:11.311Z,101869.94
2023-05-03T04:28:14.355Z,101864.84
2023-05-03T04:31:21.741Z,101864.84
2023-05-03T04:34:27.642Z,101864.66
2023-05-03T04:37:31.440Z,101862.31
2023-05-03T04:40:34.454Z,101867.94
2023-05-03T04:43:41.461Z,101873.34
2023-05-03T04:46:44.191Z,101877.56
2023-05-03T04:49:47.365Z,101886.44
2023-05-03T04:52:49.752Z,101891.19
2023-05-03T04:55:53.411Z,101878.78
2023-05-03T04:58:56.379Z,101885.75
2023-05-03T05:01:58.722Z,101879.94
2023-05-03T05:05:00.735Z,101882.59
2023-05-03T05:08:03.096Z,101883.63
2023-05-03T05:11:13.157Z,101884.59
2023-05-03T05:14:15.613Z,101880.25
2023-05-03T05:17:18.361Z,101877.25
2023-05-03T05:20:20.657Z,101884.31
2023-05-03T05:23:25.374Z,101894.16
2023-05-03T05:26:27.964Z,101886.47
2023-05-03T05:29:30.932Z,101885.06
2023-05-03T05:32:33.380Z,101882.16
2023-05-03T05:35:35.907Z,101887.50
2023-05-03T05:38:42.820Z,101895.53
2023-05-03T05:41:47.053Z,101891.56
2023-05-03T05:44:55.634Z,101898.69
2023-05-03T05:48:05.377Z,101889.75
2023-05-03T05:51:10.319Z,101892.56
2023-05-03T05:54:12.673Z,101898.63
2023-05-03T05:57:19.277Z,101892.91
2023-05-03T06:00:31.479Z,101893.78
2023-05-03T06:03:34.055Z,101905.53
2023-05-03T06:06:39.191Z,101895.69
2023-05-03T06:09:41.751Z,101907.00
2023-05-03T06:12:44.043Z,101900.38
2023-05-03T06:15:50.721Z,101912.09
2023-05-03T06:18:53.263Z,101904.75
2023-05-03T06:21:55.562Z,101902.38
2023-05-03T06:24:58.572Z,101901.22
2023-05-03T06:28:03.175Z,101902.97
2023-05-03T06:31:07.508Z,101908.59
2023-05-03T06:34:10.834Z,101902.59
2023-05-03T06:37:15.615Z,101894.16
2023-05-03T06:40:19.106Z,101890.88
2023-05-03T06:43:21.502Z,101885.22
2023-05-03T06:46:31.201Z,101890.34
2023-05-03T06:49:33.355Z,101892.91
2023-05-03T06:52:35.469Z,101896.25
2023-05-03T06:55:37.989Z,101893.06
2023-05-03T06:58:40.096Z,101884.72
2023-05-03T07:01:46.293Z,101883.69
2023-05-03T07:04:48.402Z,101879.28
2023-05-03T07:07:50.696Z,101882.84
2023-05-03T07:10:53.787Z,101879.94
2023-05-03T07:13:59.288Z,101885.13
2023-05-03T07:17:02.045Z,101880.53
2023-05-03T07:20:04.952Z,101879.47
2023-05-03T07:23:07.448Z,101877.72
2023-05-03T07:26:09.678Z,101866.09
2023-05-03T07:29:11.824Z,101862.34
2023-05-03T07:32:13.992Z,101875.19
2023-05-03T07:35:16.914Z,101874.09
2023-05-03T07:38:18.944Z,101867.44
2023-05-03T07:41:21.340Z,101868.91
2023-05-03T07:44:23.875Z,101855.88
2023-05-03T07:47:26.623Z,101868.38
2023-05-03T07:50:30.423Z,101864.25
2023-05-03T07:53:44.658Z,101865.25
2023-05-03T07:56:49.709Z,101862.25
2023-05-03T07:59:53.677Z,101862.53
2023-05-03T08:02:56.249Z,101864.50
2023-05-03T08:05:59.660Z,101861.41
2023-05-03T08:09:04.793Z,101863.56
2023-05-03T08:12:08.600Z,101868.66
2023-05-03T08:15:11.821Z,101880.66
2023-05-03T08:18:14.301Z,101871.09
2023-05-03T08:21:17.840Z,101867.81
2023-05-03T08:24:21.250Z,101869.78
2023-05-03T08:27:25.057Z,101874.00
2023-05-03T08:30:30.016Z,101863.19
2023-05-03T08:33:32.303Z,101869.78
2023-05-03T08:36:36.217Z,101859.03
2023-05-03T08:39:38.402Z,101862.22
2023-05-03T08:42:45.248Z,101866.13
2023-05-03T08:45:47.780Z,101852.75
2023-05-03T08:48:57.155Z,101850.69
2023-05-03T08:52:00.173Z,101858.59
2023-05-03T08:55:16.480Z,101861.78
2023-05-03T08:58:27.554Z,101868.63
2023-05-03T09:01:33.767Z,101860.44
2023-05-03T09:04:38.521Z,101857.28
2023-05-03T09:08:14.886Z,101870.94
2023-05-03T09:11:31.943Z,101862.38
2023-05-03T09:14:45.484Z,101860.09
2023-05-03T09:18:07.137Z,101860.31
2023-05-03T09:21:21.178Z,101851.75
2023-05-03T09:24:24.476Z,101863.94
2023-05-03T09:27:27.870Z,101862.34
2023-05-03T09:30:32.172Z,101850.16
2023-05-03T09:33:34.414Z,101845.16
2023-05-03T09:36:49.442Z,101841.44
2023-05-03T09:40:06.041Z,101849.34
2023-05-03T09:43:12.116Z,101846.44
2023-05-03T09:46:14.597Z,101849.34
2023-05-03T09:49:19.451Z,101851.88
2023-05-03T09:52:23.276Z,101841.81
2023-05-03T09:55:27.977Z,101839.53
2023-05-03T09:58:31.454Z,101842.06
2023-05-03T10:01:36.268Z,101839.72
2023-05-03T10:04:51.903Z,101840.56
2023-05-03T10:07:56.776Z,101838.56
2023-05-03T10:10:59.324Z,101823.16
2023-05-03T10:14:01.448Z,101829.00
2023-05-03T10:17:13.701Z,101833.34
2023-05-03T10:20:25.023Z,101819.16
2023-05-03T10:23:27.927Z,101819.84
2023-05-03T10:26:30.625Z,101821.78
2023-05-03T10:29:37.115Z,101824.13
2023-05-03T10:32:43.439Z,101817.41
2023-05-03T10:35:52.670Z,101818.53
2023-05-03T10:38:57.298Z,101800.09
2023-05-03T10:42:01.998Z,101810.22
2023-05-03T10:45:05.403Z,101801.84
2023-05-03T10:48:13.652Z,101814.06
2023-05-03T10:51:37.212Z,101805.88
2023-05-03T10:54:39.572Z,101798.75
2023-05-03T10:57:43.848Z,101787.44
2023-05-03T11:00:46.091Z,101784.31
2023-05-03T11:04:08.893Z,101783.75
2023-05-03T11:07:11.101Z,101780.84
2023-05-03T11:10:20.376Z,101777.34
2023-05-03T11:16:51.190Z,101785.75
2023-05-03T11:19:53.433Z,101789.31
2023-05-03T11:22:56.688Z,101773.81
2023-05-03T11:25:58.789Z,101773.03
2023-05-03T11:29:00.888Z,101774.41
2023-05-03T11:32:03.148Z,101772.97
2023-05-03T11:35:07.725Z,101767.94
2023-05-03T11:38:10.580Z,101772.19
2023-05-03T11:41:15.179Z,101766.94
2023-05-03T11:44:18.400Z,101765.25
2023-05-03T11:47:23.954Z,101766.13
2023-05-03T11:50:47.903Z,101767.59
2023-05-03T11:53:51.824Z,101760.25
2023-05-03T11:56:59.458Z,101752.88
2023-05-03T12:00:19.214Z,101754.75
2023-05-03T12:03:26.883Z,101758.56
2023-05-03T12:06:36.179Z,101753.69
2023-05-03T12:09:41.186Z,101749.50
2023-05-03T12:12:58.180Z,101744.44
2023-05-03T12:19:09.309Z,101735.78
2023-05-03T12:22:25.940Z,101736.44
2023-05-03T12:25:34.091Z,101728.66
2023-05-03T12:28:37.230Z,101727.78
2023-05-03T12:31:40.735Z,101718.13
2023-05-03T12:34:47.101Z,101724.22
2023-05-03T12:37:50.665Z,101709.94
2023-05-03T12:40:53.958Z,101713.09
2023-05-03T12:44:00.105Z,101716.25
2023-05-03T12:47:04.388Z,101713.72
2023-05-03T12:50:12.253Z,101702.63
2023-05-03T12:53:17.072Z,101706.63
2023-05-03T12:56:23.838Z,101698.56
2023-05-03T13:05:38.617Z,101699.69
2023-05-03T13:08:49.728Z,101677.81
2023-05-03T13:11:53.449Z,101680.72
2023-05-03T13:14:56.427Z,101686.22
2023-05-03T13:18:01.720Z,101684.16
2023-05-03T13:21:03.812Z,101685.00
2023-05-03T13:24:06.336Z,101677.19
2023-05-03T13:27:08.468Z,101665.56
2023-05-03T13:30:11.072Z,101670.84
2023-05-03T13:33:14.121Z,101668.56
2023-05-03T13:36:16.832Z,101668.00
2023-05-03T13:39:19.242Z,101670.50
2023-05-03T13:42:21.513Z,101664.53
2023-05-03T13:45:23.697Z,101667.84
2023-05-03T13:48:27.314Z,101648.25
2023-05-03T13:51:41.740Z,101657.28
2023-05-03T13:54:44.062Z,101662.63
2023-05-03T13:57:46.488Z,101661.91
2023-05-03T14:00:49.283Z,101653.13
2023-05-03T14:04:17.428Z,101663.09
2023-05-03T14:07:20.946Z,101662.09
2023-05-03T14:10:23.380Z,101656.41
2023-05-03T14:13:25.835Z,101664.66
2023-05-03T14:16:40.725Z,101656.25
2023-05-03T14:19:44.187Z,101670.59
2023-05-03T14:22:47.409Z,101665.16
2023-05-03T14:25:49.502Z,101662.63
2023-05-03T14:28:53.083Z,101643.28
2023-05-03T14:31:57.504Z,101664.78
2023-05-03T14:34:59.852Z,101665.34
2023-05-03T14:38:31.936Z,101661.34
2023-05-03T14:41:34.643Z,101667.25
2023-05-03T14:44:38.144Z,101646.81
2023-05-03T14:47:45.972Z,101655.69
2023-05-03T14:50:52.060Z,101665.13
2023-05-03T14:53:55.695Z,101666.44
2023-05-03T15:02:02.471Z,101651.03
2023-05-03T15:05:05.373Z,101664.94
2023-05-03T15:08:14.519Z,101656.53
2023-05-03T15:11:38.940Z,101664.50
2023-05-03T15:14:42.673Z,101658.59
2023-05-03T15:17:44.957Z,101673.72
2023-05-03T15:20:48.127Z,101659.19
2023-05-03T15:23:51.772Z,101652.25
2023-05-03T15:26:55.312Z,101655.84
2023-05-03T15:29:57.533Z,101667.78
2023-05-03T15:33:03.928Z,101644.81
2023-05-03T15:36:08.660Z,101650.06
2023-05-03T15:39:10.781Z,101654.06
2023-05-03T15:42:12.996Z,101655.50
2023-05-03T15:45:15.592Z,101657.81
2023-05-03T15:48:18.076Z,101658.00
2023-05-03T15:51:20.862Z,101650.41
2023-05-03T15:54:23.062Z,101647.69
2023-05-03T15:57:27.445Z,101643.28
2023-05-03T16:00:33.853Z,101644.56
2023-05-03T16:03:36.043Z,101643.06
2023-05-03T16:06:39.296Z,101643.44
2023-05-03T16:09:50.370Z,101637.16
2023-05-03T16:12:52.483Z,101641.13
2023-05-03T16:15:58.073Z,101644.91
2023-05-03T16:19:00.245Z,101641.13
2023-05-03T16:22:03.053Z,101632.28
2023-05-03T16:25:10.754Z,101644.91
2023-05-03T16:28:13.648Z,101647.56
2023-05-03T16:31:17.043Z,101640.34
2023-05-03T16:34:19.244Z,101646.25
2023-05-03T16:37:21.992Z,101650.53
2023-05-03T16:40:24.504Z,101659.72
2023-05-03T16:43:27.703Z,101656.56
2023-05-03T16:46:32.382Z,101654.00
2023-05-03T16:49:35.789Z,101650.09
2023-05-03T16:52:39.680Z,101648.53
2023-05-03T16:55:42.103Z,101649.91
2023-05-03T16:58:45.047Z,101653.44
2023-05-03T17:01:47.387Z,101644.31
2023-05-03T17:04:49.889Z,101645.94
2023-05-03T17:07:52.163Z,101651.94
2023-05-03T17:10:57.472Z,101645.81
2023-05-03T17:14:01.155Z,101643.53
2023-05-03T17:17:04.416Z,101636.34
2023-05-03T17:20:07.884Z,101647.03
2023-05-03T17:23:09.969Z,101654.38
2023-05-03T17:26:13.183Z,101658.63
2023-05-03T17:29:15.267Z,101648.19
2023-05-03T17:32:17.373Z,101663.19
2023-05-03T17:35:19.507Z,101671.31
2023-05-03T17:38:22.875Z,101653.19
2023-05-03T17:41:24.981Z,101664.28
2023-05-03T17:44:27.297Z,101667.97
2023-05-03T17:47:29.612Z,101674.72
2023-05-03T17:50:31.724Z,101686.38
2023-05-03T17:53:38.317Z,101682.75
2023-05-03T17:56:40.414Z,101680.97
2023-05-03T17:59:44.913Z,101684.94
2023-05-03T18:02:48.376Z,101693.94
2023-05-03T18:05:50.773Z,101693.88
2023-05-03T18:08:53.297Z,101691.53
2023-05-03T18:12:00.070Z,101697.56
2023-05-03T18:15:02.423Z,101693.06
2023-05-03T18:18:05.016Z,101688.66
2023-05-03T18:21:07.583Z,101685.91
2023-05-03T18:24:09.670Z,101696.50
2023-05-03T18:27:17.104Z,101686.97
2023-05-03T18:30:21.865Z,101692.41
2023-05-03T18:33:25.548Z,101691.94
2023-05-03T18:36:27.730Z,101697.13
2023-05-03T18:39:31.706Z,101695.16
2023-05-03T18:42:33.898Z,101699.47
2023-05-03T18:45:39.959Z,101697.97
2023-05-03T18:48:42.140Z,101713.00
2023-05-03T18:51:45.218Z,101709.19
2023-05-03T18:54:47.600Z,101703.06
2023-05-03T18:57:50.145Z,101710.97
2023-05-03T19:00:52.103Z,101721.19
2023-05-03T19:03:54.373Z,101728.22
2023-05-03T19:06:57.389Z,101726.88
2023-05-03T19:10:00.809Z,101726.41
2023-05-03T19:13:03.308Z,101732.25
2023-05-03T19:16:05.970Z,101715.63
2023-05-03T19:19:10.588Z,101718.81
2023-05-03T19:22:12.691Z,101719.75
2023-05-03T19:25:15.352Z,101707.81
2023-05-03T19:28:17.405Z,101722.09
2023-05-03T19:31:19.530Z,101723.59
2023-05-03T19:34:21.660Z,101729.59
2023-05-03T19:37:23.748Z,101722.78
2023-05-03T19:40:25.895Z,101727.75
2023-05-03T19:43:28.248Z,101726.41
2023-05-03T19:46:30.908Z,101732.72
2023-05-03T19:49:33.282Z,101739.53
2023-05-03T19:52:35.317Z,101735.88
2023-05-03T19:55:38.054Z,101737.28
2023-05-03T19:58:40.854Z,101735.59
2023-05-03T20:01:43.973Z,101733.91
2023-05-03T20:04:46.301Z,101739.16
2023-05-03T20:07:49.374Z,101730.72
2023-05-03T20:10:55.180Z,101741.66
2023-05-03T20:14:00.187Z,101743.53
2023-05-03T20:17:02.417Z,101742.91
2023-05-03T20:20:10.102Z,101737.50
2023-05-03T20:23:20.776Z,101740.22
2023-05-03T20:26:22.810Z,101745.50
2023-05-03T20:29:26.770Z,101747.25
2023-05-03T20:32:29.091Z,101735.44
2023-05-03T20:35:31.541Z,101731.56
2023-05-03T20:38:34.205Z,101739.56
2023-05-03T20:41:36.284Z,101746.19
2023-05-03T20:44:38.547Z,101750.78
2023-05-03T20:47:40.754Z,101748.63
2023-05-03T20:50:43.727Z,101760.34
2023-05-03T20:53:45.823Z,101752.84
2023-05-03T20:56:47.793Z,101755.66
2023-05-03T20:59:50.145Z,101770.94
2023-05-03T21:02:54.606Z,101764.03
2023-05-03T21:05:57.618Z,101770.78
2023-05-03T21:09:00.598Z,101762.63
2023-05-03T21:12:02.909Z,101768.22
2023-05-03T21:15:05.550Z,101776.22
2023-05-03T21:18:07.756Z,101773.50
2023-05-03T21:21:10.322Z,101779.09
2023-05-03T21:24:12.618Z,101787.09
2023-05-03T21:27:14.879Z,101776.28
2023-05-03T21:30:17.032Z,101788.53
2023-05-03T21:33:19.083Z,101796.03
2023-05-03T21:36:21.205Z,101804.56
2023-05-03T21:39:23.358Z,101802.00
2023-05-03T21:42:25.341Z,101815.13
2023-05-03T21:45:27.387Z,101818.88
2023-05-03T21:48:29.622Z,101809.03
2023-05-03T21:51:32.535Z,101819.72
2023-05-03T21:54:34.739Z,101807.44
2023-05-03T21:57:37.173Z,101814.25
2023-05-03T22:00:40.575Z,101805.34
2023-05-03T22:03:42.727Z,101799.91
2023-05-03T22:06:45.596Z,101803.84
2023-05-03T22:09:48.509Z,101798.56
2023-05-03T22:12:50.647Z,101803.84
2023-05-03T22:15:52.840Z,101799.91
2023-05-03T22:18:57.619Z,101793.84
2023-05-03T22:21:59.901Z,101795.59
2023-05-03T22:25:02.840Z,101799.38
2023-05-03T22:28:07.187Z,101796.47
2023-05-03T22:31:09.293Z,101790.53
2023-05-03T22:34:11.571Z,101797.84
2023-05-03T22:37:13.672Z,101794.16
2023-05-03T22:40:15.867Z,101794.34
2023-05-03T22:43:17.983Z,101798.22
2023-05-03T22:46:20.148Z,101792.41
2023-05-03T22:49:22.296Z,101792.06
2023-05-03T22:52:24.469Z,101797.50
2023-05-03T22:55:26.624Z,101794.78
2023-05-03T22:58:29.005Z,101797.50
2023-05-03T23:01:31.193Z,101807.03
2023-05-03T23:04:33.351Z,101795.00
2023-05-03T23:07:35.857Z,101794.50
2023-05-03T23:10:37.940Z,101787.25
2023-05-03T23:13:40.022Z,101792.91
2023-05-03T23:16:42.383Z,101782.03
2023-05-03T23:19:44.439Z,101777.34
2023-05-03T23:22:46.756Z,101778.81
2023-05-03T23:25:48.829Z,101774.78
2023-05-03T23:28:51.523Z,101777.34
2023-05-03T23:31:54.003Z,101779.69
2023-05-03T23:34:58.062Z,101761.81
2023-05-03T23:38:00.224Z,101758.75
2023-05-03T23:41:02.289Z,101766.56
2023-05-03T23:44:04.596Z,101756.53
2023-05-03T23:47:06.956Z,101746.69
2023-05-03T23:50:09.523Z,101754.66
2023-05-03T23:53:12.478Z,101754.84
2023-05-03T23:56:14.634Z,101744.69
2023-05-03T23:59:16.810Z,101742.31
